sensor_id;sensor_type;location;lat;lon;timestamp;P1;durP1;ratioP1;P2;durP2;ratioP2
57345;SDS011;43181;50.974;18.244;2022-08-19T00:01:38;11.90;;;8.40;;
57345;SDS011;43181;50.974;18.244;2022-08-19T00:04:09;12.10;;;8.10;;
57345;SDS011;43181;50.974;18.244;2022-08-19T00:06:37;11.90;;;7.80;;
57345;SDS011;43181;50.974;18.244;2022-08-19T00:09:05;12.60;;;8.60;;
57345;SDS011;43181;50.974;18.244;2022-08-19T00:11:32;9.50;;;6.60;;
57345;SDS011;43181;50.974;18.244;2022-08-19T00:14:01;13.50;;;8.60;;
57345;SDS011;43181;50.974;18.244;2022-08-19T00:16:27;13.80;;;9.60;;
57345;SDS011;43181;50.974;18.244;2022-08-19T00:18:53;14.50;;;9.40;;
57345;SDS011;43181;50.974;18.244;2022-08-19T00:21:20;14.30;;;8.60;;
57345;SDS011;43181;50.974;18.244;2022-08-19T00:23:47;14.10;;;9.50;;
57345;SDS011;43181;50.974;18.244;2022-08-19T00:26:13;13.80;;;8.90;;
57345;SDS011;43181;50.974;18.244;2022-08-19T00:28:39;12.90;;;9.40;;
57345;SDS011;43181;50.974;18.244;2022-08-19T00:31:05;12.00;;;8.00;;
57345;SDS011;43181;50.974;18.244;2022-08-19T00:33:32;12.70;;;8.70;;
57345;SDS011;43181;50.974;18.244;2022-08-19T00:36:02;13.60;;;9.10;;
57345;SDS011;43181;50.974;18.244;2022-08-19T00:38:31;16.30;;;9.50;;
57345;SDS011;43181;50.974;18.244;2022-08-19T00:40:58;16.60;;;10.00;;
57345;SDS011;43181;50.974;18.244;2022-08-19T00:43:25;12.60;;;8.80;;
57345;SDS011;43181;50.974;18.244;2022-08-19T00:45:52;15.70;;;10.50;;
57345;SDS011;43181;50.974;18.244;2022-08-19T00:48:19;14.70;;;9.30;;
57345;SDS011;43181;50.974;18.244;2022-08-19T00:50:45;15.70;;;9.50;;
57345;SDS011;43181;50.974;18.244;2022-08-19T00:53:14;16.30;;;9.90;;
57345;SDS011;43181;50.974;18.244;2022-08-19T00:55:45;13.90;;;9.60;;
57345;SDS011;43181;50.974;18.244;2022-08-19T00:58:12;12.40;;;8.70;;
57345;SDS011;43181;50.974;18.244;2022-08-19T01:00:41;15.60;;;10.00;;
57345;SDS011;43181;50.974;18.244;2022-08-19T01:03:07;17.00;;;10.20;;
57345;SDS011;43181;50.974;18.244;2022-08-19T01:05:35;14.10;;;9.40;;
57345;SDS011;43181;50.974;18.244;2022-08-19T01:08:02;14.30;;;9.30;;
57345;SDS011;43181;50.974;18.244;2022-08-19T01:10:29;16.20;;;9.50;;
57345;SDS011;43181;50.974;18.244;2022-08-19T01:12:58;14.30;;;9.70;;
57345;SDS011;43181;50.974;18.244;2022-08-19T01:15:25;16.30;;;10.80;;
57345;SDS011;43181;50.974;18.244;2022-08-19T01:17:54;16.20;;;9.70;;
57345;SDS011;43181;50.974;18.244;2022-08-19T01:20:22;16.80;;;10.80;;
57345;SDS011;43181;50.974;18.244;2022-08-19T01:22:50;14.70;;;10.30;;
57345;SDS011;43181;50.974;18.244;2022-08-19T01:25:22;14.60;;;10.30;;
57345;SDS011;43181;50.974;18.244;2022-08-19T01:27:52;14.50;;;10.20;;
57345;SDS011;43181;50.974;18.244;2022-08-19T01:30:26;13.10;;;9.50;;
57345;SDS011;43181;50.974;18.244;2022-08-19T01:32:53;15.70;;;10.50;;
57345;SDS011;43181;50.974;18.244;2022-08-19T01:35:19;16.50;;;10.50;;
57345;SDS011;43181;50.974;18.244;2022-08-19T01:37:50;15.00;;;10.00;;
57345;SDS011;43181;50.974;18.244;2022-08-19T01:40:21;15.70;;;10.40;;
57345;SDS011;43181;50.974;18.244;2022-08-19T01:42:49;15.30;;;10.60;;
57345;SDS011;43181;50.974;18.244;2022-08-19T01:45:15;15.10;;;9.40;;
57345;SDS011;43181;50.974;18.244;2022-08-19T01:47:42;15.70;;;10.20;;
57345;SDS011;43181;50.974;18.244;2022-08-19T01:50:08;15.70;;;10.00;;
57345;SDS011;43181;50.974;18.244;2022-08-19T01:52:36;15.70;;;10.20;;
57345;SDS011;43181;50.974;18.244;2022-08-19T01:55:03;14.70;;;10.40;;
57345;SDS011;43181;50.974;18.244;2022-08-19T01:57:30;15.20;;;10.80;;
57345;SDS011;43181;50.974;18.244;2022-08-19T01:59:56;15.90;;;10.70;;
57345;SDS011;43181;50.974;18.244;2022-08-19T02:02:22;16.50;;;10.40;;
57345;SDS011;43181;50.974;18.244;2022-08-19T02:04:47;17.80;;;10.90;;
57345;SDS011;43181;50.974;18.244;2022-08-19T02:07:13;17.00;;;10.90;;
57345;SDS011;43181;50.974;18.244;2022-08-19T02:09:40;16.70;;;10.60;;
57345;SDS011;43181;50.974;18.244;2022-08-19T02:12:08;15.40;;;10.50;;
57345;SDS011;43181;50.974;18.244;2022-08-19T02:14:35;14.90;;;11.00;;
57345;SDS011;43181;50.974;18.244;2022-08-19T02:17:01;19.10;;;11.20;;
57345;SDS011;43181;50.974;18.244;2022-08-19T02:19:27;18.10;;;11.60;;
57345;SDS011;43181;50.974;18.244;2022-08-19T02:21:53;17.80;;;11.00;;
57345;SDS011;43181;50.974;18.244;2022-08-19T02:24:18;17.50;;;11.20;;
57345;SDS011;43181;50.974;18.244;2022-08-19T02:26:44;17.70;;;11.50;;
57345;SDS011;43181;50.974;18.244;2022-08-19T02:29:10;18.10;;;12.00;;
57345;SDS011;43181;50.974;18.244;2022-08-19T02:31:36;17.50;;;11.50;;
57345;SDS011;43181;50.974;18.244;2022-08-19T02:34:01;19.70;;;11.90;;
57345;SDS011;43181;50.974;18.244;2022-08-19T02:36:27;19.30;;;11.70;;
57345;SDS011;43181;50.974;18.244;2022-08-19T02:38:53;17.20;;;10.50;;
57345;SDS011;43181;50.974;18.244;2022-08-19T02:41:24;16.90;;;11.80;;
57345;SDS011;43181;50.974;18.244;2022-08-19T02:43:53;16.60;;;10.70;;
57345;SDS011;43181;50.974;18.244;2022-08-19T02:46:24;18.30;;;12.30;;
57345;SDS011;43181;50.974;18.244;2022-08-19T02:48:53;19.80;;;12.80;;
57345;SDS011;43181;50.974;18.244;2022-08-19T02:51:22;18.80;;;10.80;;
57345;SDS011;43181;50.974;18.244;2022-08-19T02:53:51;15.40;;;10.50;;
57345;SDS011;43181;50.974;18.244;2022-08-19T02:56:18;17.90;;;10.70;;
57345;SDS011;43181;50.974;18.244;2022-08-19T02:58:44;18.20;;;11.70;;
57345;SDS011;43181;50.974;18.244;2022-08-19T03:01:10;18.50;;;11.00;;
57345;SDS011;43181;50.974;18.244;2022-08-19T03:03:39;18.20;;;11.30;;
57345;SDS011;43181;50.974;18.244;2022-08-19T03:06:09;17.30;;;10.10;;
57345;SDS011;43181;50.974;18.244;2022-08-19T03:08:39;19.30;;;12.50;;
57345;SDS011;43181;50.974;18.244;2022-08-19T03:11:06;20.20;;;12.80;;
57345;SDS011;43181;50.974;18.244;2022-08-19T03:13:54;17.90;;;11.60;;
57345;SDS011;43181;50.974;18.244;2022-08-19T03:16:20;18.70;;;11.70;;
57345;SDS011;43181;50.974;18.244;2022-08-19T03:18:48;18.70;;;10.80;;
57345;SDS011;43181;50.974;18.244;2022-08-19T03:21:15;17.30;;;11.70;;
57345;SDS011;43181;50.974;18.244;2022-08-19T03:23:42;19.10;;;11.20;;
57345;SDS011;43181;50.974;18.244;2022-08-19T03:26:07;17.50;;;10.00;;
57345;SDS011;43181;50.974;18.244;2022-08-19T03:28:33;19.60;;;12.20;;
57345;SDS011;43181;50.974;18.244;2022-08-19T03:31:18;20.40;;;12.30;;
57345;SDS011;43181;50.974;18.244;2022-08-19T03:33:48;18.10;;;11.30;;
57345;SDS011;43181;50.974;18.244;2022-08-19T03:36:15;20.50;;;13.30;;
57345;SDS011;43181;50.974;18.244;2022-08-19T03:38:47;17.60;;;11.40;;
57345;SDS011;43181;50.974;18.244;2022-08-19T03:41:15;19.50;;;11.80;;
57345;SDS011;43181;50.974;18.244;2022-08-19T03:43:42;19.40;;;12.30;;
57345;SDS011;43181;50.974;18.244;2022-08-19T03:46:10;17.90;;;12.30;;
57345;SDS011;43181;50.974;18.244;2022-08-19T03:48:38;25.10;;;12.50;;
57345;SDS011;43181;50.974;18.244;2022-08-19T03:51:06;20.40;;;12.70;;
57345;SDS011;43181;50.974;18.244;2022-08-19T03:53:33;16.30;;;12.00;;
57345;SDS011;43181;50.974;18.244;2022-08-19T03:56:00;21.70;;;13.10;;
57345;SDS011;43181;50.974;18.244;2022-08-19T03:58:27;17.60;;;10.70;;
57345;SDS011;43181;50.974;18.244;2022-08-19T04:00:54;17.60;;;11.30;;
57345;SDS011;43181;50.974;18.244;2022-08-19T04:03:24;18.20;;;12.40;;
57345;SDS011;43181;50.974;18.244;2022-08-19T04:05:51;19.30;;;12.30;;
57345;SDS011;43181;50.974;18.244;2022-08-19T04:08:19;23.60;;;13.60;;
57345;SDS011;43181;50.974;18.244;2022-08-19T04:10:47;21.40;;;13.00;;
57345;SDS011;43181;50.974;18.244;2022-08-19T04:13:17;20.80;;;13.00;;
57345;SDS011;43181;50.974;18.244;2022-08-19T04:15:44;19.10;;;12.40;;
57345;SDS011;43181;50.974;18.244;2022-08-19T04:18:11;19.40;;;12.70;;
57345;SDS011;43181;50.974;18.244;2022-08-19T04:20:43;21.30;;;12.80;;
57345;SDS011;43181;50.974;18.244;2022-08-19T04:23:12;19.80;;;13.20;;
57345;SDS011;43181;50.974;18.244;2022-08-19T04:25:39;19.60;;;12.10;;
57345;SDS011;43181;50.974;18.244;2022-08-19T04:28:06;23.90;;;12.40;;
57345;SDS011;43181;50.974;18.244;2022-08-19T04:30:38;16.30;;;11.30;;
57345;SDS011;43181;50.974;18.244;2022-08-19T04:33:09;19.10;;;12.90;;
57345;SDS011;43181;50.974;18.244;2022-08-19T04:35:39;17.90;;;11.80;;
57345;SDS011;43181;50.974;18.244;2022-08-19T04:38:07;21.10;;;13.30;;
57345;SDS011;43181;50.974;18.244;2022-08-19T04:40:34;18.20;;;11.80;;
57345;SDS011;43181;50.974;18.244;2022-08-19T04:43:23;24.50;;;12.90;;
57345;SDS011;43181;50.974;18.244;2022-08-19T04:45:48;24.50;;;13.10;;
57345;SDS011;43181;50.974;18.244;2022-08-19T04:48:15;20.60;;;13.20;;
57345;SDS011;43181;50.974;18.244;2022-08-19T04:50:41;20.70;;;13.30;;
57345;SDS011;43181;50.974;18.244;2022-08-19T04:53:08;20.60;;;12.70;;
57345;SDS011;43181;50.974;18.244;2022-08-19T04:55:34;19.80;;;13.10;;
57345;SDS011;43181;50.974;18.244;2022-08-19T04:58:01;18.60;;;13.10;;
57345;SDS011;43181;50.974;18.244;2022-08-19T05:00:27;18.80;;;12.20;;
57345;SDS011;43181;50.974;18.244;2022-08-19T05:02:53;18.80;;;11.90;;
57345;SDS011;43181;50.974;18.244;2022-08-19T05:05:18;21.30;;;13.40;;
57345;SDS011;43181;50.974;18.244;2022-08-19T05:07:45;20.50;;;12.00;;
57345;SDS011;43181;50.974;18.244;2022-08-19T05:10:10;18.90;;;12.90;;
57345;SDS011;43181;50.974;18.244;2022-08-19T05:12:37;19.20;;;12.30;;
57345;SDS011;43181;50.974;18.244;2022-08-19T05:15:04;17.80;;;11.60;;
57345;SDS011;43181;50.974;18.244;2022-08-19T05:17:33;18.80;;;12.30;;
57345;SDS011;43181;50.974;18.244;2022-08-19T05:19:59;20.00;;;12.60;;
57345;SDS011;43181;50.974;18.244;2022-08-19T05:22:43;19.70;;;11.80;;
57345;SDS011;43181;50.974;18.244;2022-08-19T05:25:12;20.30;;;11.60;;
57345;SDS011;43181;50.974;18.244;2022-08-19T05:27:40;16.80;;;11.70;;
57345;SDS011;43181;50.974;18.244;2022-08-19T05:30:07;19.50;;;12.20;;
57345;SDS011;43181;50.974;18.244;2022-08-19T05:32:33;17.80;;;12.00;;
57345;SDS011;43181;50.974;18.244;2022-08-19T05:34:58;18.70;;;11.10;;
57345;SDS011;43181;50.974;18.244;2022-08-19T05:37:24;17.60;;;12.00;;
57345;SDS011;43181;50.974;18.244;2022-08-19T05:39:52;18.40;;;12.00;;
57345;SDS011;43181;50.974;18.244;2022-08-19T05:42:22;18.40;;;11.70;;
57345;SDS011;43181;50.974;18.244;2022-08-19T05:44:49;14.80;;;10.20;;
57345;SDS011;43181;50.974;18.244;2022-08-19T05:47:15;17.40;;;11.20;;
57345;SDS011;43181;50.974;18.244;2022-08-19T05:49:41;16.00;;;11.00;;
57345;SDS011;43181;50.974;18.244;2022-08-19T05:52:09;20.40;;;11.70;;
57345;SDS011;43181;50.974;18.244;2022-08-19T05:54:37;14.50;;;10.20;;
57345;SDS011;43181;50.974;18.244;2022-08-19T05:57:05;19.40;;;12.00;;
57345;SDS011;43181;50.974;18.244;2022-08-19T05:59:31;17.40;;;11.90;;
57345;SDS011;43181;50.974;18.244;2022-08-19T06:02:00;17.40;;;11.60;;
57345;SDS011;43181;50.974;18.244;2022-08-19T06:04:26;14.80;;;10.30;;
57345;SDS011;43181;50.974;18.244;2022-08-19T06:06:52;15.10;;;10.30;;
57345;SDS011;43181;50.974;18.244;2022-08-19T06:09:19;18.10;;;11.50;;
57345;SDS011;43181;50.974;18.244;2022-08-19T06:11:50;16.40;;;11.70;;
57345;SDS011;43181;50.974;18.244;2022-08-19T06:14:19;15.70;;;11.00;;
57345;SDS011;43181;50.974;18.244;2022-08-19T06:16:48;14.60;;;11.10;;
57345;SDS011;43181;50.974;18.244;2022-08-19T06:19:14;18.10;;;11.60;;
57345;SDS011;43181;50.974;18.244;2022-08-19T06:21:42;16.80;;;10.80;;
57345;SDS011;43181;50.974;18.244;2022-08-19T06:24:10;14.30;;;10.20;;
57345;SDS011;43181;50.974;18.244;2022-08-19T06:26:39;15.90;;;10.40;;
57345;SDS011;43181;50.974;18.244;2022-08-19T06:29:06;13.20;;;9.40;;
57345;SDS011;43181;50.974;18.244;2022-08-19T06:31:33;14.80;;;10.30;;
57345;SDS011;43181;50.974;18.244;2022-08-19T06:34:01;14.40;;;10.40;;
57345;SDS011;43181;50.974;18.244;2022-08-19T06:36:29;13.20;;;9.70;;
57345;SDS011;43181;50.974;18.244;2022-08-19T06:39:05;12.80;;;9.80;;
57345;SDS011;43181;50.974;18.244;2022-08-19T06:41:40;12.10;;;8.70;;
57345;SDS011;43181;50.974;18.244;2022-08-19T06:44:07;14.60;;;9.50;;
57345;SDS011;43181;50.974;18.244;2022-08-19T06:46:33;13.60;;;9.30;;
57345;SDS011;43181;50.974;18.244;2022-08-19T06:49:00;13.40;;;9.30;;
57345;SDS011;43181;50.974;18.244;2022-08-19T06:51:26;11.90;;;8.60;;
57345;SDS011;43181;50.974;18.244;2022-08-19T06:53:52;11.50;;;8.30;;
57345;SDS011;43181;50.974;18.244;2022-08-19T06:56:23;11.00;;;7.70;;
57345;SDS011;43181;50.974;18.244;2022-08-19T06:58:56;12.70;;;9.00;;
57345;SDS011;43181;50.974;18.244;2022-08-19T07:01:22;14.10;;;8.80;;
57345;SDS011;43181;50.974;18.244;2022-08-19T07:03:48;11.20;;;8.60;;
57345;SDS011;43181;50.974;18.244;2022-08-19T07:06:15;10.90;;;8.40;;
57345;SDS011;43181;50.974;18.244;2022-08-19T07:08:43;10.70;;;8.40;;
57345;SDS011;43181;50.974;18.244;2022-08-19T07:11:10;13.40;;;8.20;;
57345;SDS011;43181;50.974;18.244;2022-08-19T07:13:38;12.90;;;8.90;;
57345;SDS011;43181;50.974;18.244;2022-08-19T07:16:05;12.30;;;8.30;;
57345;SDS011;43181;50.974;18.244;2022-08-19T07:18:35;11.60;;;8.00;;
57345;SDS011;43181;50.974;18.244;2022-08-19T07:21:18;11.50;;;8.50;;
57345;SDS011;43181;50.974;18.244;2022-08-19T07:23:46;10.50;;;8.90;;
57345;SDS011;43181;50.974;18.244;2022-08-19T07:26:14;13.50;;;8.80;;
57345;SDS011;43181;50.974;18.244;2022-08-19T07:28:41;11.00;;;8.50;;
57345;SDS011;43181;50.974;18.244;2022-08-19T07:31:12;10.80;;;8.20;;
57345;SDS011;43181;50.974;18.244;2022-08-19T07:33:40;11.70;;;7.90;;
57345;SDS011;43181;50.974;18.244;2022-08-19T07:36:07;12.20;;;8.10;;
57345;SDS011;43181;50.974;18.244;2022-08-19T07:38:37;12.50;;;8.20;;
57345;SDS011;43181;50.974;18.244;2022-08-19T07:41:04;11.90;;;8.20;;
57345;SDS011;43181;50.974;18.244;2022-08-19T07:43:30;10.30;;;7.40;;
57345;SDS011;43181;50.974;18.244;2022-08-19T07:45:56;11.30;;;7.50;;
57345;SDS011;43181;50.974;18.244;2022-08-19T07:48:25;11.10;;;7.50;;
57345;SDS011;43181;50.974;18.244;2022-08-19T07:50:53;13.10;;;8.10;;
57345;SDS011;43181;50.974;18.244;2022-08-19T07:53:21;11.50;;;7.50;;
57345;SDS011;43181;50.974;18.244;2022-08-19T07:55:47;10.80;;;7.90;;
57345;SDS011;43181;50.974;18.244;2022-08-19T07:58:14;9.50;;;6.50;;
57345;SDS011;43181;50.974;18.244;2022-08-19T08:00:42;9.70;;;7.20;;
57345;SDS011;43181;50.974;18.244;2022-08-19T08:03:09;12.40;;;7.90;;
57345;SDS011;43181;50.974;18.244;2022-08-19T08:05:35;13.10;;;7.30;;
57345;SDS011;43181;50.974;18.244;2022-08-19T08:08:19;12.00;;;7.20;;
57345;SDS011;43181;50.974;18.244;2022-08-19T08:11:08;13.80;;;7.70;;
57345;SDS011;43181;50.974;18.244;2022-08-19T08:13:34;10.30;;;7.70;;
57345;SDS011;43181;50.974;18.244;2022-08-19T08:16:03;11.90;;;7.90;;
57345;SDS011;43181;50.974;18.244;2022-08-19T08:18:29;13.70;;;7.80;;
57345;SDS011;43181;50.974;18.244;2022-08-19T08:20:55;9.40;;;7.00;;
57345;SDS011;43181;50.974;18.244;2022-08-19T08:23:22;11.40;;;7.60;;
57345;SDS011;43181;50.974;18.244;2022-08-19T08:25:50;12.10;;;6.90;;
57345;SDS011;43181;50.974;18.244;2022-08-19T08:28:19;12.80;;;7.70;;
57345;SDS011;43181;50.974;18.244;2022-08-19T08:30:46;10.80;;;7.20;;
57345;SDS011;43181;50.974;18.244;2022-08-19T08:33:13;13.60;;;7.50;;
57345;SDS011;43181;50.974;18.244;2022-08-19T08:35:40;10.20;;;6.90;;
57345;SDS011;43181;50.974;18.244;2022-08-19T08:38:10;9.00;;;6.50;;
57345;SDS011;43181;50.974;18.244;2022-08-19T08:40:44;10.90;;;7.30;;
57345;SDS011;43181;50.974;18.244;2022-08-19T08:43:29;12.70;;;6.80;;
57345;SDS011;43181;50.974;18.244;2022-08-19T08:46:03;9.10;;;6.70;;
57345;SDS011;43181;50.974;18.244;2022-08-19T08:51:27;10.20;;;6.60;;
57345;SDS011;43181;50.974;18.244;2022-08-19T08:53:58;13.50;;;6.40;;
57345;SDS011;43181;50.974;18.244;2022-08-19T08:56:24;10.70;;;6.50;;
57345;SDS011;43181;50.974;18.244;2022-08-19T08:58:59;12.50;;;6.90;;
57345;SDS011;43181;50.974;18.244;2022-08-19T09:01:28;8.50;;;5.70;;
57345;SDS011;43181;50.974;18.244;2022-08-19T09:03:54;10.90;;;5.80;;
57345;SDS011;43181;50.974;18.244;2022-08-19T09:06:26;8.50;;;5.20;;
57345;SDS011;43181;50.974;18.244;2022-08-19T09:09:13;12.60;;;5.00;;
57345;SDS011;43181;50.974;18.244;2022-08-19T09:12:04;7.50;;;4.70;;
57345;SDS011;43181;50.974;18.244;2022-08-19T09:14:48;9.40;;;5.00;;
57345;SDS011;43181;50.974;18.244;2022-08-19T09:17:23;11.90;;;6.10;;
57345;SDS011;43181;50.974;18.244;2022-08-19T09:22:36;8.90;;;5.60;;
57345;SDS011;43181;50.974;18.244;2022-08-19T09:25:07;10.80;;;6.20;;
57345;SDS011;43181;50.974;18.244;2022-08-19T09:27:35;12.00;;;6.30;;
57345;SDS011;43181;50.974;18.244;2022-08-19T09:30:04;10.40;;;5.60;;
57345;SDS011;43181;50.974;18.244;2022-08-19T09:32:31;11.30;;;6.30;;
57345;SDS011;43181;50.974;18.244;2022-08-19T09:34:57;9.50;;;5.60;;
57345;SDS011;43181;50.974;18.244;2022-08-19T09:37:23;11.50;;;5.70;;
57345;SDS011;43181;50.974;18.244;2022-08-19T09:39:50;12.20;;;5.60;;
57345;SDS011;43181;50.974;18.244;2022-08-19T09:42:18;9.60;;;5.70;;
57345;SDS011;43181;50.974;18.244;2022-08-19T09:44:44;10.10;;;6.20;;
57345;SDS011;43181;50.974;18.244;2022-08-19T09:47:11;10.70;;;6.00;;
57345;SDS011;43181;50.974;18.244;2022-08-19T09:49:38;9.50;;;5.60;;
57345;SDS011;43181;50.974;18.244;2022-08-19T09:52:04;15.50;;;6.00;;
57345;SDS011;43181;50.974;18.244;2022-08-19T09:54:31;13.00;;;6.70;;
57345;SDS011;43181;50.974;18.244;2022-08-19T09:56:59;9.90;;;5.90;;
57345;SDS011;43181;50.974;18.244;2022-08-19T09:59:26;9.70;;;6.70;;
57345;SDS011;43181;50.974;18.244;2022-08-19T10:01:52;10.00;;;6.90;;
57345;SDS011;43181;50.974;18.244;2022-08-19T10:04:17;11.50;;;7.00;;
57345;SDS011;43181;50.974;18.244;2022-08-19T10:06:43;9.80;;;6.70;;
57345;SDS011;43181;50.974;18.244;2022-08-19T10:09:09;15.40;;;6.80;;
57345;SDS011;43181;50.974;18.244;2022-08-19T10:11:36;9.90;;;5.70;;
57345;SDS011;43181;50.974;18.244;2022-08-19T10:14:04;14.10;;;7.00;;
57345;SDS011;43181;50.974;18.244;2022-08-19T10:16:31;11.30;;;7.00;;
57345;SDS011;43181;50.974;18.244;2022-08-19T10:18:57;9.90;;;6.60;;
57345;SDS011;43181;50.974;18.244;2022-08-19T10:21:32;13.10;;;6.80;;
57345;SDS011;43181;50.974;18.244;2022-08-19T10:24:00;12.70;;;6.60;;
57345;SDS011;43181;50.974;18.244;2022-08-19T10:26:30;9.80;;;6.60;;
57345;SDS011;43181;50.974;18.244;2022-08-19T10:29:02;8.80;;;5.70;;
57345;SDS011;43181;50.974;18.244;2022-08-19T10:31:31;9.70;;;5.90;;
57345;SDS011;43181;50.974;18.244;2022-08-19T10:33:58;10.20;;;6.20;;
57345;SDS011;43181;50.974;18.244;2022-08-19T10:36:31;12.90;;;6.20;;
57345;SDS011;43181;50.974;18.244;2022-08-19T10:38:59;11.30;;;6.30;;
57345;SDS011;43181;50.974;18.244;2022-08-19T10:41:31;7.60;;;5.90;;
57345;SDS011;43181;50.974;18.244;2022-08-19T10:44:03;11.70;;;5.80;;
57345;SDS011;43181;50.974;18.244;2022-08-19T10:46:31;11.00;;;6.50;;
57345;SDS011;43181;50.974;18.244;2022-08-19T10:49:01;9.20;;;5.60;;
57345;SDS011;43181;50.974;18.244;2022-08-19T10:51:28;14.50;;;6.40;;
57345;SDS011;43181;50.974;18.244;2022-08-19T10:54:13;10.20;;;6.20;;
57345;SDS011;43181;50.974;18.244;2022-08-19T10:56:38;10.50;;;6.40;;
57345;SDS011;43181;50.974;18.244;2022-08-19T10:59:17;9.70;;;6.00;;
57345;SDS011;43181;50.974;18.244;2022-08-19T11:01:54;11.80;;;6.40;;
57345;SDS011;43181;50.974;18.244;2022-08-19T11:04:24;12.60;;;6.20;;
57345;SDS011;43181;50.974;18.244;2022-08-19T11:06:50;11.10;;;6.90;;
57345;SDS011;43181;50.974;18.244;2022-08-19T11:09:17;14.70;;;6.40;;
57345;SDS011;43181;50.974;18.244;2022-08-19T11:11:44;13.00;;;6.90;;
57345;SDS011;43181;50.974;18.244;2022-08-19T11:14:11;13.60;;;6.60;;
57345;SDS011;43181;50.974;18.244;2022-08-19T11:16:39;9.70;;;6.30;;
57345;SDS011;43181;50.974;18.244;2022-08-19T11:19:06;9.20;;;5.80;;
57345;SDS011;43181;50.974;18.244;2022-08-19T11:21:38;11.40;;;5.90;;
57345;SDS011;43181;50.974;18.244;2022-08-19T11:24:07;9.30;;;6.10;;
57345;SDS011;43181;50.974;18.244;2022-08-19T11:26:34;13.30;;;6.70;;
57345;SDS011;43181;50.974;18.244;2022-08-19T11:29:00;12.10;;;6.70;;
57345;SDS011;43181;50.974;18.244;2022-08-19T11:31:29;12.50;;;6.70;;
57345;SDS011;43181;50.974;18.244;2022-08-19T11:33:56;10.90;;;6.80;;
57345;SDS011;43181;50.974;18.244;2022-08-19T11:36:24;10.70;;;6.50;;
57345;SDS011;43181;50.974;18.244;2022-08-19T11:38:50;11.10;;;6.70;;
57345;SDS011;43181;50.974;18.244;2022-08-19T11:41:19;11.20;;;6.90;;
57345;SDS011;43181;50.974;18.244;2022-08-19T11:43:46;14.70;;;7.30;;
57345;SDS011;43181;50.974;18.244;2022-08-19T11:46:12;11.30;;;6.90;;
57345;SDS011;43181;50.974;18.244;2022-08-19T11:48:39;11.20;;;7.80;;
57345;SDS011;43181;50.974;18.244;2022-08-19T11:51:06;11.90;;;7.90;;
57345;SDS011;43181;50.974;18.244;2022-08-19T11:53:33;9.90;;;6.90;;
57345;SDS011;43181;50.974;18.244;2022-08-19T11:55:59;10.00;;;7.20;;
57345;SDS011;43181;50.974;18.244;2022-08-19T11:58:25;13.20;;;8.50;;
57345;SDS011;43181;50.974;18.244;2022-08-19T12:00:51;14.10;;;8.40;;
57345;SDS011;43181;50.974;18.244;2022-08-19T12:03:17;12.10;;;7.80;;
57345;SDS011;43181;50.974;18.244;2022-08-19T12:05:44;11.00;;;8.00;;
57345;SDS011;43181;50.974;18.244;2022-08-19T12:08:10;11.40;;;8.10;;
57345;SDS011;43181;50.974;18.244;2022-08-19T12:10:38;15.20;;;8.60;;
57345;SDS011;43181;50.974;18.244;2022-08-19T12:13:08;12.50;;;8.40;;
57345;SDS011;43181;50.974;18.244;2022-08-19T12:15:35;14.90;;;8.40;;
57345;SDS011;43181;50.974;18.244;2022-08-19T12:18:02;13.20;;;8.20;;
57345;SDS011;43181;50.974;18.244;2022-08-19T12:20:29;11.10;;;8.50;;
57345;SDS011;43181;50.974;18.244;2022-08-19T12:22:55;12.30;;;7.20;;
57345;SDS011;43181;50.974;18.244;2022-08-19T12:25:20;9.90;;;7.30;;
57345;SDS011;43181;50.974;18.244;2022-08-19T12:27:46;14.60;;;8.10;;
57345;SDS011;43181;50.974;18.244;2022-08-19T12:30:14;10.70;;;7.40;;
57345;SDS011;43181;50.974;18.244;2022-08-19T12:32:39;11.30;;;8.10;;
57345;SDS011;43181;50.974;18.244;2022-08-19T12:35:06;11.90;;;6.80;;
57345;SDS011;43181;50.974;18.244;2022-08-19T12:37:34;11.40;;;7.40;;
57345;SDS011;43181;50.974;18.244;2022-08-19T12:39:59;12.00;;;7.70;;
57345;SDS011;43181;50.974;18.244;2022-08-19T12:42:26;8.60;;;6.90;;
57345;SDS011;43181;50.974;18.244;2022-08-19T12:44:52;10.10;;;7.10;;
57345;SDS011;43181;50.974;18.244;2022-08-19T12:47:18;13.20;;;7.00;;
57345;SDS011;43181;50.974;18.244;2022-08-19T12:49:44;11.50;;;8.00;;
57345;SDS011;43181;50.974;18.244;2022-08-19T12:52:11;10.30;;;7.40;;
57345;SDS011;43181;50.974;18.244;2022-08-19T12:54:40;10.70;;;7.10;;
57345;SDS011;43181;50.974;18.244;2022-08-19T12:57:07;11.00;;;8.50;;
57345;SDS011;43181;50.974;18.244;2022-08-19T12:59:33;10.50;;;8.20;;
57345;SDS011;43181;50.974;18.244;2022-08-19T13:02:06;11.20;;;8.10;;
57345;SDS011;43181;50.974;18.244;2022-08-19T13:04:33;14.50;;;8.00;;
57345;SDS011;43181;50.974;18.244;2022-08-19T13:07:05;8.90;;;7.00;;
57345;SDS011;43181;50.974;18.244;2022-08-19T13:09:32;14.70;;;8.30;;
57345;SDS011;43181;50.974;18.244;2022-08-19T13:11:58;12.30;;;7.50;;
57345;SDS011;43181;50.974;18.244;2022-08-19T13:14:30;10.10;;;7.50;;
57345;SDS011;43181;50.974;18.244;2022-08-19T13:16:56;11.80;;;7.40;;
57345;SDS011;43181;50.974;18.244;2022-08-19T13:19:22;14.40;;;7.90;;
57345;SDS011;43181;50.974;18.244;2022-08-19T13:21:50;10.10;;;7.90;;
57345;SDS011;43181;50.974;18.244;2022-08-19T13:24:17;12.00;;;7.20;;
57345;SDS011;43181;50.974;18.244;2022-08-19T13:26:43;9.40;;;7.20;;
57345;SDS011;43181;50.974;18.244;2022-08-19T13:29:09;10.80;;;7.40;;
57345;SDS011;43181;50.974;18.244;2022-08-19T13:31:53;11.40;;;8.20;;
57345;SDS011;43181;50.974;18.244;2022-08-19T13:34:37;10.50;;;7.50;;
57345;SDS011;43181;50.974;18.244;2022-08-19T13:37:03;10.20;;;7.60;;
57345;SDS011;43181;50.974;18.244;2022-08-19T13:39:30;10.50;;;6.90;;
57345;SDS011;43181;50.974;18.244;2022-08-19T13:41:58;10.00;;;7.60;;
57345;SDS011;43181;50.974;18.244;2022-08-19T13:44:26;15.10;;;7.80;;
57345;SDS011;43181;50.974;18.244;2022-08-19T13:46:55;10.10;;;7.10;;
57345;SDS011;43181;50.974;18.244;2022-08-19T13:49:27;12.00;;;7.40;;
57345;SDS011;43181;50.974;18.244;2022-08-19T13:51:56;12.60;;;8.20;;
57345;SDS011;43181;50.974;18.244;2022-08-19T13:54:22;10.10;;;7.10;;
57345;SDS011;43181;50.974;18.244;2022-08-19T13:56:48;9.20;;;7.40;;
57345;SDS011;43181;50.974;18.244;2022-08-19T13:59:14;11.40;;;7.30;;
57345;SDS011;43181;50.974;18.244;2022-08-19T14:01:39;13.00;;;7.50;;
57345;SDS011;43181;50.974;18.244;2022-08-19T14:04:06;9.10;;;7.30;;
57345;SDS011;43181;50.974;18.244;2022-08-19T14:06:33;12.00;;;7.10;;
57345;SDS011;43181;50.974;18.244;2022-08-19T14:08:58;10.90;;;7.20;;
57345;SDS011;43181;50.974;18.244;2022-08-19T14:11:25;9.80;;;7.50;;
57345;SDS011;43181;50.974;18.244;2022-08-19T14:13:50;10.60;;;7.20;;
57345;SDS011;43181;50.974;18.244;2022-08-19T14:16:16;12.60;;;7.60;;
57345;SDS011;43181;50.974;18.244;2022-08-19T14:18:42;12.40;;;8.10;;
57345;SDS011;43181;50.974;18.244;2022-08-19T14:21:13;9.30;;;6.70;;
57345;SDS011;43181;50.974;18.244;2022-08-19T14:23:40;9.60;;;7.50;;
57345;SDS011;43181;50.974;18.244;2022-08-19T14:26:10;11.40;;;8.00;;
57345;SDS011;43181;50.974;18.244;2022-08-19T14:28:39;9.30;;;7.70;;
57345;SDS011;43181;50.974;18.244;2022-08-19T14:31:07;10.30;;;7.90;;